createdAt,value
2023-02-13T00:02:01.775Z,15.60
2023-02-13T00:04:30.236Z,14.55
2023-02-13T00:06:58.673Z,12.80
2023-02-13T00:09:27.169Z,11.15
2023-02-13T00:11:55.637Z,11.10
2023-02-13T00:14:24.152Z,12.43
2023-02-13T00:16:52.623Z,11.60
2023-02-13T00:19:22.437Z,11.50
2023-02-13T00:21:50.893Z,10.98
2023-02-13T00:24:19.335Z,9.82
2023-02-13T00:26:47.781Z,10.32
2023-02-13T00:29:16.399Z,9.30
2023-02-13T00:31:45.036Z,8.95
2023-02-13T00:34:13.528Z,8.07
2023-02-13T00:36:43.445Z,8.40
2023-02-13T00:39:13.098Z,8.25
2023-02-13T00:41:41.504Z,8.18
2023-02-13T00:44:10.794Z,6.93
2023-02-13T00:46:39.732Z,6.93
2023-02-13T00:49:08.414Z,7.18
2023-02-13T00:51:36.820Z,7.72
2023-02-13T00:54:06.744Z,5.38
2023-02-13T00:56:35.302Z,5.55
2023-02-13T00:59:03.711Z,4.97
2023-02-13T01:01:32.195Z,4.70
2023-02-13T01:04:01.074Z,4.80
2023-02-13T01:06:29.519Z,4.95
2023-02-13T01:08:58.102Z,4.13
2023-02-13T01:11:28.059Z,3.78
2023-02-13T01:13:56.495Z,4.15
2023-02-13T01:16:25.005Z,3.50
2023-02-13T01:18:53.506Z,3.33
2023-02-13T01:21:24.114Z,3.50
2023-02-13T01:23:52.673Z,3.80
2023-02-13T01:26:24.037Z,3.10
2023-02-13T01:28:55.631Z,3.53
2023-02-13T01:31:24.300Z,3.88
2023-02-13T01:33:53.144Z,3.85
2023-02-13T01:36:21.587Z,3.47
2023-02-13T01:38:53.492Z,3.50
2023-02-13T01:41:22.743Z,3.53
2023-02-13T01:43:53.505Z,3.47
2023-02-13T01:46:32.802Z,3.28
2023-02-13T01:49:07.176Z,3.25
2023-02-13T01:54:09.300Z,3.60
2023-02-13T01:56:41.894Z,3.13
2023-02-13T01:59:18.166Z,3.60
2023-02-13T02:01:49.025Z,3.40
2023-02-13T02:04:23.299Z,4.00
2023-02-13T02:06:55.696Z,3.88
2023-02-13T02:09:28.421Z,3.50
2023-02-13T02:12:02.795Z,4.13
2023-02-13T02:17:01.111Z,3.90
2023-02-13T02:19:37.992Z,3.83
2023-02-13T02:22:33.158Z,4.18
2023-02-13T02:25:33.806Z,3.85
2023-02-13T02:28:29.125Z,4.00
2023-02-13T02:31:33.433Z,3.97
2023-02-13T02:34:14.980Z,4.53
2023-02-13T02:36:58.576Z,4.90
2023-02-13T02:39:38.079Z,4.68
2023-02-13T02:42:16.376Z,4.63
2023-02-13T02:44:53.386Z,4.65
2023-02-13T02:47:44.266Z,4.88
2023-02-13T02:50:24.793Z,4.78
2023-02-13T02:53:08.775Z,5.07
2023-02-13T02:55:42.375Z,4.80
2023-02-13T02:58:34.810Z,4.75
2023-02-13T03:01:23.758Z,5.35
2023-02-13T03:04:11.100Z,6.03
2023-02-13T03:06:47.565Z,5.43
2023-02-13T03:09:52.121Z,5.07
2023-02-13T03:12:42.625Z,6.23
2023-02-13T03:15:11.294Z,6.15
2023-02-13T03:18:02.605Z,6.75
2023-02-13T03:21:01.067Z,6.95
2023-02-13T03:23:40.032Z,6.63
2023-02-13T03:26:33.283Z,7.18
2023-02-13T03:29:30.326Z,6.93
2023-02-13T03:32:05.944Z,6.15
2023-02-13T03:34:53.081Z,7.07
2023-02-13T03:37:46.461Z,7.35
2023-02-13T03:40:21.866Z,6.80
2023-02-13T03:42:55.178Z,7.30
2023-02-13T03:45:56.227Z,7.55
2023-02-13T03:48:45.584Z,6.78
2023-02-13T03:51:19.690Z,7.30
2023-02-13T03:53:51.998Z,7.20
2023-02-13T03:56:40.806Z,6.53
2023-02-13T03:59:17.351Z,6.40
2023-02-13T04:01:51.923Z,6.68
2023-02-13T04:04:26.726Z,7.07
2023-02-13T04:06:58.855Z,6.63
2023-02-13T04:09:29.228Z,6.93
2023-02-13T04:12:07.366Z,6.85
2023-02-13T04:14:39.439Z,6.90
2023-02-13T04:17:12.560Z,7.10
2023-02-13T04:19:41.315Z,7.07
2023-02-13T04:22:09.922Z,7.10
2023-02-13T04:24:38.502Z,7.07
2023-02-13T04:27:08.424Z,6.80
2023-02-13T04:29:36.855Z,7.65
2023-02-13T04:32:05.427Z,7.55
2023-02-13T04:34:33.971Z,7.45
2023-02-13T04:37:02.371Z,7.90
2023-02-13T04:39:30.798Z,8.50
2023-02-13T04:41:59.214Z,8.55
2023-02-13T04:44:29.008Z,8.32
2023-02-13T04:46:57.883Z,8.48
2023-02-13T04:49:26.302Z,8.00
2023-02-13T04:51:54.784Z,7.70
2023-02-13T04:54:23.307Z,8.38
2023-02-13T04:56:51.831Z,7.00
2023-02-13T04:59:20.270Z,7.25
2023-02-13T05:01:50.182Z,7.47
2023-02-13T05:04:18.949Z,7.25
2023-02-13T05:06:47.399Z,7.20
2023-02-13T05:09:15.846Z,6.88
2023-02-13T05:11:44.339Z,7.35
2023-02-13T05:14:12.819Z,6.93
2023-02-13T05:16:41.260Z,7.38
2023-02-13T05:19:11.300Z,7.05
2023-02-13T05:21:57.286Z,6.85
2023-02-13T05:24:25.846Z,7.65
2023-02-13T05:26:54.386Z,6.32
2023-02-13T05:29:23.597Z,7.03
2023-02-13T05:31:54.331Z,7.13
2023-02-13T05:34:26.351Z,6.63
2023-02-13T05:36:55.752Z,7.10
2023-02-13T05:39:24.260Z,6.95
2023-02-13T05:41:52.774Z,6.80
2023-02-13T05:44:21.203Z,6.60
2023-02-13T05:46:49.827Z,6.57
2023-02-13T05:49:18.397Z,6.35
2023-02-13T05:51:48.166Z,7.22
2023-02-13T05:54:16.936Z,5.97
2023-02-13T05:56:45.391Z,7.10
2023-02-13T05:59:14.468Z,6.25
2023-02-13T06:01:42.948Z,6.38
2023-02-13T06:04:11.417Z,6.18
2023-02-13T06:06:40.058Z,6.30
2023-02-13T06:09:09.949Z,6.60
2023-02-13T06:11:38.402Z,6.93
2023-02-13T06:14:06.870Z,6.78
2023-02-13T06:16:35.324Z,6.43
2023-02-13T06:19:04.018Z,6.20
2023-02-13T06:21:33.409Z,6.53
2023-02-13T06:24:01.800Z,5.93
2023-02-13T06:26:31.610Z,5.90
2023-02-13T06:29:00.147Z,6.05
2023-02-13T06:31:28.815Z,5.60
2023-02-13T06:33:57.314Z,6.20
2023-02-13T06:36:25.741Z,6.30
2023-02-13T06:38:54.159Z,6.68
2023-02-13T06:41:22.616Z,6.60
2023-02-13T06:43:52.498Z,6.07
2023-02-13T06:46:20.965Z,6.85
2023-02-13T06:48:49.400Z,6.10
2023-02-13T06:51:17.874Z,5.25
2023-02-13T06:53:46.301Z,6.78
2023-02-13T06:56:14.711Z,6.43
2023-02-13T06:58:43.349Z,6.38
2023-02-13T07:01:13.153Z,6.45
2023-02-13T07:03:41.731Z,7.57
2023-02-13T07:06:10.170Z,6.82
2023-02-13T07:08:38.621Z,6.68
2023-02-13T07:11:07.184Z,7.10
2023-02-13T07:13:35.603Z,7.00
2023-02-13T07:16:04.136Z,6.45
2023-02-13T07:18:33.929Z,6.25
2023-02-13T07:21:02.351Z,6.35
2023-02-13T07:23:30.906Z,6.45
2023-02-13T07:26:00.979Z,7.72
2023-02-13T07:28:30.334Z,6.85
2023-02-13T07:30:59.285Z,7.40
2023-02-13T07:33:27.849Z,7.45
2023-02-13T07:35:57.666Z,7.70
2023-02-13T07:38:26.130Z,7.93
2023-02-13T07:40:54.607Z,6.88
2023-02-13T07:43:23.299Z,7.43
2023-02-13T07:45:55.669Z,7.10
2023-02-13T07:48:24.872Z,7.35
2023-02-13T07:50:53.316Z,8.02
2023-02-13T07:53:23.524Z,7.65
2023-02-13T07:55:51.953Z,7.50
2023-02-13T07:58:20.420Z,8.00
2023-02-13T08:00:49.138Z,6.13
2023-02-13T08:03:17.604Z,5.90
2023-02-13T08:05:49.546Z,6.65
2023-02-13T08:08:18.125Z,7.22
2023-02-13T08:11:05.335Z,7.07
2023-02-13T08:13:34.016Z,7.05
2023-02-13T08:16:02.620Z,6.60
2023-02-13T08:18:31.146Z,5.40
2023-02-13T08:20:59.556Z,6.15
2023-02-13T08:23:28.143Z,6.88
2023-02-13T08:26:01.019Z,7.07
2023-02-13T08:28:30.399Z,6.65
2023-02-13T08:30:58.890Z,6.10
2023-02-13T08:33:27.321Z,6.13
2023-02-13T08:35:55.866Z,6.53
2023-02-13T08:38:24.466Z,6.82
2023-02-13T08:40:52.910Z,6.65
2023-02-13T08:43:22.675Z,7.78
2023-02-13T08:45:51.178Z,7.63
2023-02-13T08:48:19.610Z,7.28
2023-02-13T08:50:48.200Z,6.55
2023-02-13T08:53:16.631Z,6.50
2023-02-13T08:55:52.400Z,6.07
2023-02-13T08:58:22.350Z,6.05
2023-02-13T09:00:51.284Z,5.97
2023-02-13T09:03:20.046Z,6.95
2023-02-13T09:05:48.772Z,6.75
2023-02-13T09:08:18.821Z,6.78
2023-02-13T09:10:47.437Z,6.60
2023-02-13T09:13:15.893Z,6.32
2023-02-13T09:15:45.715Z,6.13
2023-02-13T09:18:14.153Z,7.13
2023-02-13T09:20:42.584Z,6.63
2023-02-13T09:23:11.028Z,8.02
2023-02-13T09:25:39.441Z,6.70
2023-02-13T09:28:07.978Z,8.98
2023-02-13T09:30:36.520Z,6.85
2023-02-13T09:33:12.233Z,6.72
2023-02-13T09:35:42.304Z,6.60
2023-02-13T09:38:10.776Z,7.30
2023-02-13T09:40:46.425Z,7.18
2023-02-13T09:43:18.065Z,9.27
2023-02-13T09:45:48.666Z,7.85
2023-02-13T09:48:31.315Z,7.97
2023-02-13T09:51:00.795Z,8.20
2023-02-13T09:53:33.403Z,10.05
2023-02-13T09:56:11.179Z,8.88
2023-02-13T09:58:45.818Z,9.80
2023-02-13T10:01:27.542Z,10.02
2023-02-13T10:04:17.402Z,9.60
2023-02-13T10:06:50.974Z,10.70
2023-02-13T10:09:30.849Z,9.05
2023-02-13T10:12:34.890Z,9.93
2023-02-13T10:15:20.001Z,10.45
2023-02-13T10:17:55.280Z,10.10
2023-02-13T10:20:31.970Z,10.45
2023-02-13T10:23:18.705Z,10.30
2023-02-13T10:25:53.402Z,10.40
2023-02-13T10:28:32.185Z,10.07
2023-02-13T10:31:06.992Z,10.82
2023-02-13T10:33:42.369Z,10.85
2023-02-13T10:36:19.859Z,11.60
2023-02-13T10:38:57.705Z,11.55
2023-02-13T10:41:35.916Z,11.27
2023-02-13T10:44:18.511Z,10.93
2023-02-13T10:46:57.075Z,9.38
2023-02-13T10:49:38.795Z,8.45
2023-02-13T10:52:18.712Z,8.30
2023-02-13T10:55:04.025Z,8.57
2023-02-13T10:57:45.372Z,9.82
2023-02-13T11:00:22.570Z,8.95
2023-02-13T11:02:51.253Z,8.23
2023-02-13T11:05:23.676Z,8.85
2023-02-13T11:07:53.443Z,8.77
2023-02-13T11:10:24.314Z,10.10
2023-02-13T11:12:53.807Z,8.90
2023-02-13T11:15:25.990Z,8.93
2023-02-13T11:17:56.607Z,10.00
2023-02-13T11:20:33.076Z,9.55
2023-02-13T11:23:34.545Z,9.63
2023-02-13T11:26:05.131Z,9.90
2023-02-13T11:28:36.963Z,10.40
2023-02-13T11:31:15.513Z,11.40
2023-02-13T11:33:44.350Z,10.30
2023-02-13T11:36:17.192Z,10.35
2023-02-13T11:38:46.996Z,11.57
2023-02-13T11:41:20.541Z,11.18
2023-02-13T11:43:51.816Z,10.83
2023-02-13T11:46:22.856Z,9.95
2023-02-13T11:48:59.627Z,12.20
2023-02-13T11:51:43.905Z,11.50
2023-02-13T11:54:35.910Z,11.48
2023-02-13T11:57:18.212Z,11.68
2023-02-13T11:59:49.151Z,11.93
2023-02-13T12:02:21.157Z,11.43
2023-02-13T12:04:52.265Z,12.20
2023-02-13T12:07:24.417Z,10.25
2023-02-13T12:10:02.502Z,11.63
2023-02-13T12:12:38.795Z,11.77
2023-02-13T12:15:16.485Z,11.30
2023-02-13T12:17:46.775Z,11.57
2023-02-13T12:20:16.176Z,11.30
2023-02-13T12:22:57.240Z,11.95
2023-02-13T12:25:58.097Z,13.15
2023-02-13T12:28:41.643Z,12.80
2023-02-13T12:31:32.454Z,12.98
2023-02-13T12:34:54.631Z,12.18
2023-02-13T12:37:50.393Z,12.60
2023-02-13T12:40:35.657Z,13.32
2023-02-13T12:43:26.951Z,12.85
2023-02-13T12:46:00.613Z,11.73
2023-02-13T12:48:40.336Z,13.98
2023-02-13T12:51:22.620Z,11.88
2023-02-13T12:54:07.209Z,11.70
2023-02-13T12:57:00.344Z,11.15
2023-02-13T12:59:44.821Z,12.15
2023-02-13T13:02:46.053Z,12.05
2023-02-13T13:05:30.173Z,13.90
2023-02-13T13:08:23.484Z,11.90
2023-02-13T13:11:10.199Z,11.07
2023-02-13T13:13:50.850Z,12.05
2023-02-13T13:16:28.453Z,11.68
2023-02-13T13:19:07.814Z,11.65
2023-02-13T13:21:45.691Z,11.43
2023-02-13T13:24:26.055Z,11.82
2023-02-13T13:26:57.467Z,12.05
2023-02-13T13:29:30.889Z,11.73
2023-02-13T13:32:03.559Z,12.50
2023-02-13T13:34:35.384Z,12.65
2023-02-13T13:37:13.901Z,12.43
2023-02-13T13:39:52.419Z,12.80
2023-02-13T13:42:28.500Z,11.25
2023-02-13T13:45:25.046Z,12.23
2023-02-13T13:48:18.168Z,12.35
2023-02-13T13:50:47.475Z,12.48
2023-02-13T13:53:19.371Z,12.05
2023-02-13T13:56:06.671Z,12.43
2023-02-13T13:58:41.525Z,11.90
2023-02-13T14:01:25.479Z,12.50
2023-02-13T14:03:57.418Z,11.93
2023-02-13T14:06:28.024Z,13.02
2023-02-13T14:09:00.012Z,11.90
2023-02-13T14:11:41.065Z,12.50
2023-02-13T14:14:53.162Z,12.25
2023-02-13T14:17:56.521Z,12.35
2023-02-13T14:20:42.868Z,12.60
2023-02-13T14:23:39.901Z,13.35
2023-02-13T14:26:27.282Z,12.90
2023-02-13T14:29:11.955Z,11.80
2023-02-13T14:34:24.191Z,11.75
2023-02-13T14:37:08.431Z,12.43
2023-02-13T14:39:37.227Z,12.50
2023-02-13T14:42:24.285Z,12.98
2023-02-13T14:44:57.107Z,12.90
2023-02-13T14:47:30.146Z,12.30
2023-02-13T14:50:00.629Z,13.10
2023-02-13T14:52:36.432Z,11.63
2023-02-13T14:55:08.250Z,11.68
2023-02-13T14:57:42.684Z,11.32
2023-02-13T15:02:50.740Z,12.70
2023-02-13T15:05:20.995Z,12.43
2023-02-13T15:08:07.957Z,11.32
2023-02-13T15:10:44.110Z,11.77
2023-02-13T15:13:16.427Z,12.48
2023-02-13T15:15:46.897Z,11.57
2023-02-13T15:18:21.888Z,13.43
2023-02-13T15:20:50.815Z,12.85
2023-02-13T15:23:24.755Z,12.52
2023-02-13T15:25:58.578Z,12.05
2023-02-13T15:28:28.131Z,11.77
2023-02-13T15:30:59.372Z,12.93
2023-02-13T15:33:30.034Z,11.75
2023-02-13T15:36:01.597Z,11.57
2023-02-13T15:38:33.554Z,12.45
2023-02-13T15:41:04.330Z,11.75
2023-02-13T15:43:36.377Z,11.93
2023-02-13T15:46:07.240Z,12.13
2023-02-13T15:48:36.677Z,12.27
2023-02-13T15:51:05.594Z,11.75
2023-02-13T15:53:35.549Z,12.38
2023-02-13T15:56:06.210Z,10.95
2023-02-13T15:58:36.186Z,12.75
2023-02-13T16:01:07.686Z,12.45
2023-02-13T16:03:38.593Z,11.95
2023-02-13T16:06:09.355Z,12.15
2023-02-13T16:08:44.039Z,12.48
2023-02-13T16:11:23.820Z,12.20
2023-02-13T16:14:08.012Z,12.45
2023-02-13T16:16:45.243Z,12.05
2023-02-13T16:19:30.015Z,13.40
2023-02-13T16:24:30.124Z,11.98
2023-02-13T16:26:58.671Z,12.00
2023-02-13T16:29:28.516Z,11.70
2023-02-13T16:32:07.122Z,12.07
2023-02-13T16:34:35.679Z,11.73
2023-02-13T16:37:04.136Z,13.77
2023-02-13T16:39:34.455Z,13.55
2023-02-13T16:42:02.880Z,15.18
2023-02-13T16:44:32.579Z,14.88
2023-02-13T16:47:02.663Z,13.77
2023-02-13T16:49:33.751Z,14.10
2023-02-13T16:52:11.634Z,12.70
2023-02-13T16:54:50.208Z,12.93
2023-02-13T16:57:23.022Z,13.10
2023-02-13T17:00:18.732Z,12.98
2023-02-13T17:02:49.181Z,13.55
2023-02-13T17:05:22.826Z,12.77
2023-02-13T17:07:53.138Z,12.70
2023-02-13T17:10:27.242Z,13.35
2023-02-13T17:12:58.607Z,13.25
2023-02-13T17:15:29.298Z,12.85
2023-02-13T17:17:58.848Z,13.80
2023-02-13T17:20:29.864Z,16.13
2023-02-13T17:23:00.021Z,12.52
2023-02-13T17:25:32.416Z,12.57
2023-02-13T17:28:03.001Z,13.23
2023-02-13T17:30:33.736Z,12.73
2023-02-13T17:33:07.364Z,13.90
2023-02-13T17:35:36.267Z,13.27
2023-02-13T17:38:06.207Z,13.52
2023-02-13T17:40:36.669Z,13.95
2023-02-13T17:43:05.661Z,12.85
2023-02-13T17:45:36.113Z,14.02
2023-02-13T17:48:05.113Z,13.73
2023-02-13T17:50:35.128Z,13.05
2023-02-13T17:53:05.287Z,13.75
2023-02-13T17:55:36.121Z,13.88
2023-02-13T17:58:04.547Z,14.48
2023-02-13T18:00:35.507Z,17.88
2023-02-13T18:03:04.587Z,14.90
2023-02-13T18:05:33.501Z,15.00
2023-02-13T18:08:03.166Z,13.63
2023-02-13T18:10:37.017Z,12.73
2023-02-13T18:13:05.710Z,13.00
2023-02-13T18:15:36.278Z,13.75
2023-02-13T18:18:04.891Z,14.50
2023-02-13T18:20:33.746Z,13.70
2023-02-13T18:23:02.174Z,14.38
2023-02-13T18:25:30.935Z,12.75
2023-02-13T18:28:00.754Z,13.40
2023-02-13T18:30:29.512Z,16.42
2023-02-13T18:32:59.027Z,17.35
2023-02-13T18:35:28.069Z,14.45
2023-02-13T18:37:56.673Z,13.63
2023-02-13T18:40:25.134Z,14.00
2023-02-13T18:42:53.615Z,16.10
2023-02-13T18:45:23.598Z,14.50
2023-02-13T18:47:52.354Z,13.43
2023-02-13T18:50:20.864Z,14.18
2023-02-13T18:52:49.333Z,15.20
2023-02-13T18:55:17.894Z,13.23
2023-02-13T18:57:48.037Z,15.05
2023-02-13T19:00:17.658Z,13.88
2023-02-13T19:02:47.700Z,15.00
2023-02-13T19:05:16.216Z,14.85
2023-02-13T19:07:44.750Z,14.10
2023-02-13T19:10:14.902Z,14.02
2023-02-13T19:12:43.559Z,13.55
2023-02-13T19:15:12.031Z,15.43
2023-02-13T19:17:40.520Z,14.35
2023-02-13T19:20:12.401Z,14.95
2023-02-13T19:22:41.735Z,25.20
2023-02-13T19:25:10.272Z,16.90
2023-02-13T19:27:39.151Z,15.75
2023-02-13T19:30:09.636Z,14.45
2023-02-13T19:32:38.159Z,14.85
2023-02-13T19:35:07.590Z,14.52
2023-02-13T19:37:43.729Z,15.52
2023-02-13T19:40:14.007Z,15.05
2023-02-13T19:42:42.529Z,16.38
2023-02-13T19:45:11.860Z,14.57
2023-02-13T19:47:40.409Z,15.25
2023-02-13T19:50:09.671Z,14.77
2023-02-13T19:52:39.665Z,15.10
2023-02-13T19:55:08.617Z,15.63
2023-02-13T19:57:37.238Z,30.50
2023-02-13T20:00:07.730Z,18.38
2023-02-13T20:02:38.211Z,14.98
2023-02-13T20:05:08.795Z,15.10
2023-02-13T20:07:37.249Z,15.70
2023-02-13T20:10:09.774Z,15.95
2023-02-13T20:12:38.423Z,15.48
2023-02-13T20:15:07.443Z,15.82
2023-02-13T20:17:37.892Z,16.92
2023-02-13T20:20:07.752Z,15.60
2023-02-13T20:22:36.161Z,15.98
2023-02-13T20:25:05.257Z,16.42
2023-02-13T20:27:42.044Z,16.67
2023-02-13T20:30:13.634Z,15.85
2023-02-13T20:32:42.823Z,16.50
2023-02-13T20:35:11.725Z,16.60
2023-02-13T20:37:40.306Z,17.13
2023-02-13T20:40:10.175Z,17.85
2023-02-13T20:42:40.293Z,19.00
2023-02-13T20:45:09.679Z,17.10
2023-02-13T20:47:38.126Z,18.48
2023-02-13T20:50:07.497Z,17.15
2023-02-13T20:52:36.211Z,17.67
2023-02-13T20:55:04.938Z,18.98
2023-02-13T20:57:34.731Z,16.98
2023-02-13T21:00:06.304Z,21.70
2023-02-13T21:02:34.827Z,17.80
2023-02-13T21:05:03.522Z,17.85
2023-02-13T21:07:31.995Z,16.75
2023-02-13T21:10:00.382Z,18.42
2023-02-13T21:12:29.051Z,18.15
2023-02-13T21:14:57.534Z,17.08
2023-02-13T21:17:27.317Z,18.00
2023-02-13T21:19:55.773Z,17.40
2023-02-13T21:22:24.192Z,17.17
2023-02-13T21:24:52.858Z,16.83
2023-02-13T21:27:22.361Z,16.73
2023-02-13T21:29:50.917Z,16.98
2023-02-13T21:32:19.527Z,17.20
2023-02-13T21:34:49.360Z,14.07
2023-02-13T21:37:17.773Z,15.35
2023-02-13T21:39:46.214Z,16.30
2023-02-13T21:42:16.086Z,17.63
2023-02-13T21:44:44.479Z,16.50
2023-02-13T21:47:12.943Z,16.77
2023-02-13T21:49:41.484Z,16.33
2023-02-13T21:52:11.284Z,16.30
2023-02-13T21:54:39.747Z,16.17
2023-02-13T21:57:08.256Z,15.57
2023-02-13T21:59:36.835Z,17.15
2023-02-13T22:02:05.379Z,15.43
2023-02-13T22:04:33.914Z,16.75
2023-02-13T22:07:02.357Z,16.05
2023-02-13T22:09:32.163Z,17.15
2023-02-13T22:12:00.643Z,18.20
2023-02-13T22:14:29.089Z,17.73
2023-02-13T22:16:57.680Z,16.42
2023-02-13T22:19:26.178Z,16.75
2023-02-13T22:21:54.655Z,17.63
2023-02-13T22:24:23.369Z,17.77
2023-02-13T22:26:53.152Z,16.73
2023-02-13T22:29:23.830Z,17.45
2023-02-13T22:31:52.423Z,18.05
2023-02-13T22:34:21.336Z,16.77
2023-02-13T22:36:49.765Z,17.45
2023-02-13T22:39:18.278Z,17.48
2023-02-13T22:41:46.828Z,17.02
2023-02-13T22:44:16.609Z,18.90
2023-02-13T22:46:45.361Z,17.55
2023-02-13T22:49:14.013Z,17.75
2023-02-13T22:51:42.431Z,17.63
2023-02-13T22:54:12.170Z,17.02
2023-02-13T22:56:40.640Z,16.55
2023-02-13T22:59:09.847Z,17.17
2023-02-13T23:01:39.905Z,16.17
2023-02-13T23:04:08.537Z,17.77
2023-02-13T23:06:37.060Z,17.58
2023-02-13T23:09:05.490Z,17.52
2023-02-13T23:11:51.337Z,17.45
2023-02-13T23:14:23.616Z,15.85
2023-02-13T23:17:10.838Z,16.80
2023-02-13T23:19:39.301Z,15.70
2023-02-13T23:22:07.932Z,17.50
2023-02-13T23:24:36.360Z,15.90
2023-02-13T23:27:04.783Z,16.48
2023-02-13T23:29:33.341Z,15.65
2023-02-13T23:32:03.268Z,15.98
2023-02-13T23:34:31.909Z,16.38
2023-02-13T23:37:00.327Z,15.70
2023-02-13T23:39:28.806Z,16.23
2023-02-13T23:41:57.226Z,14.65
2023-02-13T23:44:25.629Z,15.88
2023-02-13T23:46:54.073Z,15.00
2023-02-13T23:49:23.927Z,15.68
2023-02-13T23:51:52.336Z,14.90
2023-02-13T23:54:22.866Z,14.68
2023-02-13T23:56:53.599Z,15.05
2023-02-13T23:59:23.406Z,15.57
